Time;durP1;ratioP1;P1;durP2;ratioP2;P2;SDS_P1;SDS_P2;PMS_P1;PMS_P2;Temp;Humidity;BMP_temperature;BMP_pressure;BME280_temperature;BME280_humidity;BME280_pressure;Samples;Min_cycle;Max_cycle;Signal;HPM_P1;HPM_P2
2019/06/09 00:00:39;;;;;;;4.5;3.1;;;;;;;13.32;55.24121;95904.99;;;;
2019/06/09 00:01:40;;;;;;;4.5;3.5;;;;;;;13.14;55.61816;95917.85;;;;
2019/06/09 00:02:41;;;;;;;4.5;3.5;;;;;;;13.14;55.61816;95917.85;;;;
2019/06/09 00:03:42;;;;;;;4.5;3.5;;;;;;;13.14;55.61816;95917.85;;;;
2019/06/09 00:04:43;;;;;;;4.5;3.5;;;;;;;13.14;55.61816;95917.85;;;;
2019/06/09 00:05:44;;;;;;;4.5;3.5;;;;;;;13.14;55.61816;95917.85;;;;
2019/06/09 00:06:45;;;;;;;4.5;3.5;;;;;;;13.14;55.61816;95917.85;;;;
2019/06/09 00:07:46;;;;;;;4.5;3.5;;;;;;;13.14;55.61816;95917.85;;;;
2019/06/09 00:08:48;;;;;;;4.5;3.5;;;;;;;13.14;55.61816;95917.85;;;;
2019/06/09 00:09:49;;;;;;;4.5;3.5;;;;;;;13.14;55.61816;95917.85;;;;
2019/06/09 00:10:50;;;;;;;4.5;3.5;;;;;;;13.14;55.61816;95917.85;;;;
2019/06/09 00:11:51;;;;;;;4.1;3;;;;;;;12.85;56.06738;95907.89;;;;
2019/06/09 00:12:52;;;;;;;4.1;3;;;;;;;12.85;56.06738;95907.89;;;;
2019/06/09 00:13:53;;;;;;;4.1;3;;;;;;;12.85;56.06738;95907.89;;;;
2019/06/09 00:14:54;;;;;;;4.1;3;;;;;;;12.85;56.06738;95907.89;;;;
2019/06/09 00:15:55;;;;;;;4.1;3;;;;;;;12.85;56.06738;95907.89;;;;
2019/06/09 00:16:56;;;;;;;4.1;3;;;;;;;12.85;56.06738;95907.89;;;;
2019/06/09 00:17:57;;;;;;;4.1;3;;;;;;;12.85;56.06738;95907.89;;;;
2019/06/09 00:18:58;;;;;;;4.1;3;;;;;;;12.85;56.06738;95907.89;;;;
2019/06/09 00:19:59;;;;;;;4.1;3;;;;;;;12.85;56.06738;95907.89;;;;
2019/06/09 00:21:00;;;;;;;4.1;3;;;;;;;12.85;56.06738;95907.89;;;;
2019/06/09 00:22:01;;;;;;;4.1;3;;;;;;;12.85;56.06738;95907.89;;;;
2019/06/09 00:23:02;;;;;;;4.650001;3;;;;;;;12.61;56.52344;95902.97;;;;
2019/06/09 00:24:03;;;;;;;4.650001;3;;;;;;;12.61;56.52344;95902.97;;;;
2019/06/09 00:25:04;;;;;;;4.650001;3;;;;;;;12.61;56.52344;95902.97;;;;
2019/06/09 00:26:06;;;;;;;4.650001;3;;;;;;;12.61;56.52344;95902.97;;;;
2019/06/09 00:27:07;;;;;;;4.650001;3;;;;;;;12.61;56.52344;95902.97;;;;
2019/06/09 00:28:08;;;;;;;4.650001;3;;;;;;;12.61;56.52344;95902.97;;;;
2019/06/09 00:29:09;;;;;;;4.650001;3;;;;;;;12.61;56.52344;95902.97;;;;
2019/06/09 00:30:10;;;;;;;4.650001;3;;;;;;;12.61;56.52344;95902.97;;;;
2019/06/09 00:31:18;;;;;;;4.650001;3;;;;;;;12.61;56.52344;95902.97;;;;
2019/06/09 00:32:22;;;;;;;4.650001;3;;;;;;;12.61;56.52344;95902.97;;;;
2019/06/09 00:33:23;;;;;;;4.199999;3.400001;;;;;;;12.32;56.92969;95902.94;;;;
2019/06/09 00:34:24;;;;;;;4.199999;3.400001;;;;;;;12.32;56.92969;95902.94;;;;
2019/06/09 00:35:25;;;;;;;4.199999;3.400001;;;;;;;12.32;56.92969;95902.94;;;;
2019/06/09 00:36:26;;;;;;;4.199999;3.400001;;;;;;;12.32;56.92969;95902.94;;;;
2019/06/09 00:37:27;;;;;;;4.199999;3.400001;;;;;;;12.32;56.92969;95902.94;;;;
2019/06/09 00:38:28;;;;;;;4.199999;3.400001;;;;;;;12.32;56.92969;95902.94;;;;
2019/06/09 00:39:29;;;;;;;4.199999;3.400001;;;;;;;12.32;56.92969;95902.94;;;;
2019/06/09 00:40:30;;;;;;;4.199999;3.400001;;;;;;;12.32;56.92969;95902.94;;;;
2019/06/09 00:41:47;;;;;;;4.199999;3.400001;;;;;;;12.32;56.92969;95902.94;;;;
2019/06/09 00:42:48;;;;;;;4.199999;3.400001;;;;;;;12.32;56.92969;95902.94;;;;
2019/06/09 00:43:49;;;;;;;3.7;3.35;;;;;;;12.13;57.38965;95889.15;;;;
2019/06/09 00:44:50;;;;;;;3.7;3.35;;;;;;;12.13;57.38965;95889.15;;;;
2019/06/09 00:45:51;;;;;;;3.7;3.35;;;;;;;12.13;57.38965;95889.15;;;;
2019/06/09 00:46:52;;;;;;;3.7;3.35;;;;;;;12.13;57.38965;95889.15;;;;
2019/06/09 00:47:53;;;;;;;3.7;3.35;;;;;;;12.13;57.38965;95889.15;;;;
2019/06/09 00:48:54;;;;;;;3.7;3.35;;;;;;;12.13;57.38965;95889.15;;;;
2019/06/09 00:49:55;;;;;;;3.7;3.35;;;;;;;12.13;57.38965;95889.15;;;;
2019/06/09 00:50:56;;;;;;;3.7;3.35;;;;;;;12.13;57.38965;95889.15;;;;
2019/06/09 00:51:57;;;;;;;3.7;3.35;;;;;;;12.13;57.38965;95889.15;;;;
2019/06/09 00:52:58;;;;;;;3.7;3.35;;;;;;;12.13;57.38965;95889.15;;;;
2019/06/09 00:54:00;;;;;;;3.7;3.35;;;;;;;12.13;57.38965;95889.15;;;;
2019/06/09 00:55:01;;;;;;;3.7;3.35;;;;;;;12.13;57.38965;95889.15;;;;
2019/06/09 00:56:02;;;;;;;3.7;3.35;;;;;;;12.13;57.38965;95889.15;;;;
2019/06/09 00:57:03;;;;;;;3.7;3.35;;;;;;;12.13;57.38965;95889.15;;;;
2019/06/09 00:58:04;;;;;;;3.7;3.35;;;;;;;12.13;57.38965;95889.15;;;;
2019/06/09 00:59:05;;;;;;;3.7;3.35;;;;;;;12.13;57.38965;95889.15;;;;
2019/06/09 01:00:06;;;;;;;3.7;3.35;;;;;;;12.13;57.38965;95889.15;;;;
2019/06/09 01:01:08;;;;;;;3.7;3.35;;;;;;;12.13;57.38965;95889.15;;;;
2019/06/09 01:02:09;;;;;;;3.7;3.35;;;;;;;12.13;57.38965;95889.15;;;;
2019/06/09 01:03:10;;;;;;;3.7;3.35;;;;;;;12.13;57.38965;95889.15;;;;
2019/06/09 01:04:11;;;;;;;3.7;3.35;;;;;;;12.13;57.38965;95889.15;;;;
2019/06/09 01:05:12;;;;;;;4.25;3.6;;;;;;;11.78;58.26172;95896.73;;;;
2019/06/09 01:06:13;;;;;;;4.25;3.6;;;;;;;11.78;58.26172;95896.73;;;;
2019/06/09 01:07:14;;;;;;;4.25;3.6;;;;;;;11.78;58.26172;95896.73;;;;
2019/06/09 01:08:15;;;;;;;4.25;3.6;;;;;;;11.78;58.26172;95896.73;;;;
2019/06/09 01:09:16;;;;;;;4.25;3.6;;;;;;;11.78;58.26172;95896.73;;;;
2019/06/09 01:10:17;;;;;;;4.25;3.6;;;;;;;11.78;58.26172;95896.73;;;;
2019/06/09 01:11:18;;;;;;;4.25;3.6;;;;;;;11.78;58.26172;95896.73;;;;
2019/06/09 01:12:20;;;;;;;4.25;3.6;;;;;;;11.78;58.26172;95896.73;;;;
2019/06/09 01:13:21;;;;;;;4.25;3.6;;;;;;;11.78;58.26172;95896.73;;;;
2019/06/09 01:14:22;;;;;;;4.25;3.6;;;;;;;11.78;58.26172;95896.73;;;;
2019/06/09 01:15:23;;;;;;;4.25;3.299999;;;;;;;11.55;58.80176;95888.45;;;;
2019/06/09 01:16:24;;;;;;;4.25;3.299999;;;;;;;11.55;58.80176;95888.45;;;;
2019/06/09 01:17:26;;;;;;;4.25;3.299999;;;;;;;11.55;58.80176;95888.45;;;;
2019/06/09 01:18:27;;;;;;;4.25;3.299999;;;;;;;11.55;58.80176;95888.45;;;;
2019/06/09 01:19:28;;;;;;;4.25;3.299999;;;;;;;11.55;58.80176;95888.45;;;;
2019/06/09 01:20:29;;;;;;;4.25;3.299999;;;;;;;11.55;58.80176;95888.45;;;;
2019/06/09 01:21:30;;;;;;;4.25;3.299999;;;;;;;11.55;58.80176;95888.45;;;;
2019/06/09 01:22:31;;;;;;;4.25;3.299999;;;;;;;11.55;58.80176;95888.45;;;;
2019/06/09 01:23:32;;;;;;;4.25;3.299999;;;;;;;11.55;58.80176;95888.45;;;;
2019/06/09 01:24:33;;;;;;;4.25;3.299999;;;;;;;11.55;58.80176;95888.45;;;;
2019/06/09 01:25:35;;;;;;;4.3;3.6;;;;;;;11.38;59.39258;95888.26;;;;
2019/06/09 01:26:36;;;;;;;4.3;3.6;;;;;;;11.38;59.39258;95888.26;;;;
2019/06/09 01:27:37;;;;;;;4.3;3.6;;;;;;;11.38;59.39258;95888.26;;;;
2019/06/09 01:28:38;;;;;;;4.3;3.6;;;;;;;11.38;59.39258;95888.26;;;;
2019/06/09 01:29:39;;;;;;;4.3;3.6;;;;;;;11.38;59.39258;95888.26;;;;
2019/06/09 01:30:40;;;;;;;4.3;3.6;;;;;;;11.38;59.39258;95888.26;;;;
2019/06/09 01:31:41;;;;;;;4.3;3.6;;;;;;;11.38;59.39258;95888.26;;;;
2019/06/09 01:32:43;;;;;;;4.3;3.6;;;;;;;11.38;59.39258;95888.26;;;;
2019/06/09 01:33:44;;;;;;;4.3;3.6;;;;;;;11.38;59.39258;95888.26;;;;
2019/06/09 01:34:45;;;;;;;4.3;3.6;;;;;;;11.38;59.39258;95888.26;;;;
2019/06/09 01:35:46;;;;;;;4.3;3.6;;;;;;;11.38;59.39258;95888.26;;;;
2019/06/09 01:36:47;;;;;;;7.900001;3.400001;;;;;;;11.15;59.83398;95877.81;;;;
2019/06/09 01:37:48;;;;;;;7.900001;3.400001;;;;;;;11.15;59.83398;95877.81;;;;
2019/06/09 01:38:49;;;;;;;7.900001;3.400001;;;;;;;11.15;59.83398;95877.81;;;;
2019/06/09 01:39:50;;;;;;;7.900001;3.400001;;;;;;;11.15;59.83398;95877.81;;;;
2019/06/09 01:40:51;;;;;;;7.900001;3.400001;;;;;;;11.15;59.83398;95877.81;;;;
2019/06/09 01:41:53;;;;;;;7.900001;3.400001;;;;;;;11.15;59.83398;95877.81;;;;
2019/06/09 01:42:54;;;;;;;7.900001;3.400001;;;;;;;11.15;59.83398;95877.81;;;;
2019/06/09 01:43:55;;;;;;;7.900001;3.400001;;;;;;;11.15;59.83398;95877.81;;;;
2019/06/09 01:44:56;;;;;;;7.900001;3.400001;;;;;;;11.15;59.83398;95877.81;;;;
2019/06/09 01:45:57;;;;;;;7.900001;3.400001;;;;;;;11.15;59.83398;95877.81;;;;
2019/06/09 01:46:58;;;;;;;4.3;3.6;;;;;;;10.98;60.34863;95881.2;;;;
2019/06/09 01:47:59;;;;;;;4.3;3.6;;;;;;;10.98;60.34863;95881.2;;;;
2019/06/09 01:49:00;;;;;;;4.3;3.6;;;;;;;10.98;60.34863;95881.2;;;;
2019/06/09 01:50:01;;;;;;;4.3;3.6;;;;;;;10.98;60.34863;95881.2;;;;
2019/06/09 01:51:03;;;;;;;4.3;3.6;;;;;;;10.98;60.34863;95881.2;;;;
2019/06/09 01:52:04;;;;;;;4.3;3.6;;;;;;;10.98;60.34863;95881.2;;;;
2019/06/09 01:53:05;;;;;;;4.3;3.6;;;;;;;10.98;60.34863;95881.2;;;;
2019/06/09 01:54:06;;;;;;;4.3;3.6;;;;;;;10.98;60.34863;95881.2;;;;
2019/06/09 01:55:08;;;;;;;4.3;3.6;;;;;;;10.98;60.34863;95881.2;;;;
2019/06/09 01:56:09;;;;;;;4.3;3.6;;;;;;;10.98;60.34863;95881.2;;;;
2019/06/09 01:57:10;;;;;;;4.3;3.6;;;;;;;10.98;60.34863;95881.2;;;;
2019/06/09 01:58:11;;;;;;;5.1;3.8;;;;;;;10.75;60.89648;95868.45;;;;
2019/06/09 01:59:12;;;;;;;5.1;3.8;;;;;;;10.75;60.89648;95868.45;;;;
2019/06/09 02:00:14;;;;;;;5.1;3.8;;;;;;;10.75;60.89648;95868.45;;;;
2019/06/09 02:01:15;;;;;;;5.1;3.8;;;;;;;10.75;60.89648;95868.45;;;;
2019/06/09 02:02:16;;;;;;;5.1;3.8;;;;;;;10.75;60.89648;95868.45;;;;
2019/06/09 02:03:17;;;;;;;5.1;3.8;;;;;;;10.75;60.89648;95868.45;;;;
2019/06/09 02:04:18;;;;;;;5.1;3.8;;;;;;;10.75;60.89648;95868.45;;;;
2019/06/09 02:05:19;;;;;;;5.1;3.8;;;;;;;10.75;60.89648;95868.45;;;;
2019/06/09 02:06:20;;;;;;;5.1;3.8;;;;;;;10.75;60.89648;95868.45;;;;
2019/06/09 02:07:21;;;;;;;5.1;3.8;;;;;;;10.75;60.89648;95868.45;;;;
2019/06/09 02:08:23;;;;;;;4.95;3.45;;;;;;;10.6;61.44629;95866.61;;;;
2019/06/09 02:09:24;;;;;;;4.95;3.45;;;;;;;10.6;61.44629;95866.61;;;;
2019/06/09 02:10:25;;;;;;;4.95;3.45;;;;;;;10.6;61.44629;95866.61;;;;
2019/06/09 02:11:26;;;;;;;4.95;3.45;;;;;;;10.6;61.44629;95866.61;;;;
2019/06/09 02:12:27;;;;;;;4.95;3.45;;;;;;;10.6;61.44629;95866.61;;;;
2019/06/09 02:13:29;;;;;;;4.95;3.45;;;;;;;10.6;61.44629;95866.61;;;;
2019/06/09 02:14:30;;;;;;;4.95;3.45;;;;;;;10.6;61.44629;95866.61;;;;
2019/06/09 02:15:31;;;;;;;4.95;3.45;;;;;;;10.6;61.44629;95866.61;;;;
2019/06/09 02:16:32;;;;;;;4.95;3.45;;;;;;;10.6;61.44629;95866.61;;;;
2019/06/09 02:17:33;;;;;;;4.95;3.45;;;;;;;10.6;61.44629;95866.61;;;;
2019/06/09 02:18:34;;;;;;;4.95;3.45;;;;;;;10.6;61.44629;95866.61;;;;
2019/06/09 02:19:35;;;;;;;4.95;3.45;;;;;;;10.6;61.44629;95866.61;;;;
2019/06/09 02:20:36;;;;;;;4.95;3.45;;;;;;;10.6;61.44629;95866.61;;;;
2019/06/09 02:21:37;;;;;;;4.95;3.45;;;;;;;10.6;61.44629;95866.61;;;;
2019/06/09 02:22:39;;;;;;;4.95;3.45;;;;;;;10.6;61.44629;95866.61;;;;
2019/06/09 02:23:40;;;;;;;4.95;3.45;;;;;;;10.6;61.44629;95866.61;;;;
2019/06/09 02:24:41;;;;;;;4.95;3.45;;;;;;;10.6;61.44629;95866.61;;;;
2019/06/09 02:25:42;;;;;;;4.95;3.45;;;;;;;10.6;61.44629;95866.61;;;;
2019/06/09 02:26:43;;;;;;;4.95;3.45;;;;;;;10.6;61.44629;95866.61;;;;
2019/06/09 02:27:44;;;;;;;4.95;3.45;;;;;;;10.6;61.44629;95866.61;;;;
2019/06/09 02:28:45;;;;;;;4.95;3.45;;;;;;;10.6;61.44629;95866.61;;;;
2019/06/09 02:29:47;;;;;;;4.95;3.45;;;;;;;10.6;61.44629;95866.61;;;;
2019/06/09 02:30:48;;;;;;;4.95;3.45;;;;;;;10.6;61.44629;95866.61;;;;
2019/06/09 02:31:49;;;;;;;4.95;3.45;;;;;;;10.6;61.44629;95866.61;;;;
2019/06/09 02:32:50;;;;;;;4.95;3.45;;;;;;;10.6;61.44629;95866.61;;;;
2019/06/09 02:33:51;;;;;;;4.95;3.45;;;;;;;10.6;61.44629;95866.61;;;;
2019/06/09 02:34:52;;;;;;;4.95;3.45;;;;;;;10.6;61.44629;95866.61;;;;
2019/06/09 02:35:54;;;;;;;4.95;3.45;;;;;;;10.6;61.44629;95866.61;;;;
2019/06/09 02:36:55;;;;;;;4.95;3.45;;;;;;;10.6;61.44629;95866.61;;;;
2019/06/09 02:37:56;;;;;;;4.95;3.45;;;;;;;10.6;61.44629;95866.61;;;;
2019/06/09 02:38:57;;;;;;;4.95;3.45;;;;;;;10.6;61.44629;95866.61;;;;
2019/06/09 02:39:58;;;;;;;6;3.7;;;;;;;10.13;63;95855.38;;;;
2019/06/09 02:40:59;;;;;;;6;3.7;;;;;;;10.13;63;95855.38;;;;
2019/06/09 02:42:00;;;;;;;6;3.7;;;;;;;10.13;63;95855.38;;;;
2019/06/09 02:43:02;;;;;;;6;3.7;;;;;;;10.13;63;95855.38;;;;
2019/06/09 02:44:03;;;;;;;6;3.7;;;;;;;10.13;63;95855.38;;;;
2019/06/09 02:45:04;;;;;;;6;3.7;;;;;;;10.13;63;95855.38;;;;
2019/06/09 02:46:05;;;;;;;6;3.7;;;;;;;10.13;63;95855.38;;;;
2019/06/09 02:47:45;;;;;;;6;3.7;;;;;;;10.13;63;95855.38;;;;
2019/06/09 02:48:46;;;;;;;6;3.7;;;;;;;10.13;63;95855.38;;;;
2019/06/09 02:49:47;;;;;;;6;3.7;;;;;;;10.13;63;95855.38;;;;
2019/06/09 02:50:48;;;;;;;4.249999;3.75;;;;;;;10.07;63.63477;95847.31;;;;
2019/06/09 02:51:49;;;;;;;4.249999;3.75;;;;;;;10.07;63.63477;95847.31;;;;
2019/06/09 02:52:51;;;;;;;4.249999;3.75;;;;;;;10.07;63.63477;95847.31;;;;
2019/06/09 02:53:52;;;;;;;4.249999;3.75;;;;;;;10.07;63.63477;95847.31;;;;
2019/06/09 02:54:53;;;;;;;4.249999;3.75;;;;;;;10.07;63.63477;95847.31;;;;
2019/06/09 02:55:54;;;;;;;4.249999;3.75;;;;;;;10.07;63.63477;95847.31;;;;
2019/06/09 02:56:55;;;;;;;4.249999;3.75;;;;;;;10.07;63.63477;95847.31;;;;
2019/06/09 02:57:56;;;;;;;4.249999;3.75;;;;;;;10.07;63.63477;95847.31;;;;
2019/06/09 02:58:57;;;;;;;4.249999;3.75;;;;;;;10.07;63.63477;95847.31;;;;
2019/06/09 02:59:58;;;;;;;4.249999;3.75;;;;;;;10.07;63.63477;95847.31;;;;
2019/06/09 03:00:59;;;;;;;5.900001;4.25;;;;;;;9.92;64.05176;95858.42;;;;
2019/06/09 03:02:01;;;;;;;5.900001;4.25;;;;;;;9.92;64.05176;95858.42;;;;
2019/06/09 03:03:02;;;;;;;5.900001;4.25;;;;;;;9.92;64.05176;95858.42;;;;
2019/06/09 03:04:03;;;;;;;5.900001;4.25;;;;;;;9.92;64.05176;95858.42;;;;
2019/06/09 03:05:04;;;;;;;5.900001;4.25;;;;;;;9.92;64.05176;95858.42;;;;
2019/06/09 03:06:05;;;;;;;5.900001;4.25;;;;;;;9.92;64.05176;95858.42;;;;
2019/06/09 03:07:06;;;;;;;5.900001;4.25;;;;;;;9.92;64.05176;95858.42;;;;
2019/06/09 03:08:07;;;;;;;5.900001;4.25;;;;;;;9.92;64.05176;95858.42;;;;
2019/06/09 03:09:08;;;;;;;5.900001;4.25;;;;;;;9.92;64.05176;95858.42;;;;
2019/06/09 03:10:09;;;;;;;5.900001;4.25;;;;;;;9.92;64.05176;95858.42;;;;
2019/06/09 03:11:11;;;;;;;5.900001;4.25;;;;;;;9.92;64.05176;95858.42;;;;
2019/06/09 03:12:12;;;;;;;6.2;3.85;;;;;;;9.86;64.49219;95857.12;;;;
2019/06/09 03:13:13;;;;;;;6.2;3.85;;;;;;;9.86;64.49219;95857.12;;;;
2019/06/09 03:14:14;;;;;;;6.2;3.85;;;;;;;9.86;64.49219;95857.12;;;;
2019/06/09 03:15:15;;;;;;;6.2;3.85;;;;;;;9.86;64.49219;95857.12;;;;
2019/06/09 03:16:16;;;;;;;6.2;3.85;;;;;;;9.86;64.49219;95857.12;;;;
2019/06/09 03:17:17;;;;;;;6.2;3.85;;;;;;;9.86;64.49219;95857.12;;;;
2019/06/09 03:18:18;;;;;;;6.2;3.85;;;;;;;9.86;64.49219;95857.12;;;;
2019/06/09 03:19:19;;;;;;;6.2;3.85;;;;;;;9.86;64.49219;95857.12;;;;
2019/06/09 03:20:20;;;;;;;6.2;3.85;;;;;;;9.86;64.49219;95857.12;;;;
2019/06/09 03:21:22;;;;;;;6.2;3.85;;;;;;;9.86;64.49219;95857.12;;;;
2019/06/09 03:22:23;;;;;;;5.749999;3.7;;;;;;;9.73;64.91211;95846.41;;;;
2019/06/09 03:23:24;;;;;;;5.749999;3.7;;;;;;;9.73;64.91211;95846.41;;;;
2019/06/09 03:24:25;;;;;;;5.749999;3.7;;;;;;;9.73;64.91211;95846.41;;;;
2019/06/09 03:25:26;;;;;;;5.749999;3.7;;;;;;;9.73;64.91211;95846.41;;;;
2019/06/09 03:26:27;;;;;;;5.749999;3.7;;;;;;;9.73;64.91211;95846.41;;;;
2019/06/09 03:27:28;;;;;;;5.749999;3.7;;;;;;;9.73;64.91211;95846.41;;;;
2019/06/09 03:28:29;;;;;;;5.749999;3.7;;;;;;;9.73;64.91211;95846.41;;;;
2019/06/09 03:29:30;;;;;;;5.749999;3.7;;;;;;;9.73;64.91211;95846.41;;;;
2019/06/09 03:30:31;;;;;;;5.749999;3.7;;;;;;;9.73;64.91211;95846.41;;;;
2019/06/09 03:31:32;;;;;;;5.749999;3.7;;;;;;;9.73;64.91211;95846.41;;;;
2019/06/09 03:32:33;;;;;;;5.749999;3.7;;;;;;;9.73;64.91211;95846.41;;;;
2019/06/09 03:33:34;;;;;;;6.05;4.2;;;;;;;9.74;65.33105;95844.42;;;;
2019/06/09 03:34:35;;;;;;;6.05;4.2;;;;;;;9.74;65.33105;95844.42;;;;
2019/06/09 03:35:37;;;;;;;6.05;4.2;;;;;;;9.74;65.33105;95844.42;;;;
2019/06/09 03:36:38;;;;;;;6.05;4.2;;;;;;;9.74;65.33105;95844.42;;;;
2019/06/09 03:37:39;;;;;;;6.05;4.2;;;;;;;9.74;65.33105;95844.42;;;;
2019/06/09 03:38:40;;;;;;;6.05;4.2;;;;;;;9.74;65.33105;95844.42;;;;
2019/06/09 03:39:41;;;;;;;6.05;4.2;;;;;;;9.74;65.33105;95844.42;;;;
2019/06/09 03:40:42;;;;;;;6.05;4.2;;;;;;;9.74;65.33105;95844.42;;;;
2019/06/09 03:41:43;;;;;;;6.05;4.2;;;;;;;9.74;65.33105;95844.42;;;;
2019/06/09 03:42:44;;;;;;;6.05;4.2;;;;;;;9.74;65.33105;95844.42;;;;
2019/06/09 03:43:45;;;;;;;4.900001;4.149999;;;;;;;9.75;65.74121;95832.61;;;;
2019/06/09 03:44:46;;;;;;;4.900001;4.149999;;;;;;;9.75;65.74121;95832.61;;;;
2019/06/09 03:45:47;;;;;;;4.900001;4.149999;;;;;;;9.75;65.74121;95832.61;;;;
2019/06/09 03:46:48;;;;;;;4.900001;4.149999;;;;;;;9.75;65.74121;95832.61;;;;
2019/06/09 03:47:49;;;;;;;4.900001;4.149999;;;;;;;9.75;65.74121;95832.61;;;;
2019/06/09 03:48:50;;;;;;;4.900001;4.149999;;;;;;;9.75;65.74121;95832.61;;;;
2019/06/09 03:49:52;;;;;;;4.900001;4.149999;;;;;;;9.75;65.74121;95832.61;;;;
2019/06/09 03:50:53;;;;;;;4.900001;4.149999;;;;;;;9.75;65.74121;95832.61;;;;
2019/06/09 03:51:54;;;;;;;4.900001;4.149999;;;;;;;9.75;65.74121;95832.61;;;;
2019/06/09 03:52:55;;;;;;;4.900001;4.149999;;;;;;;9.75;65.74121;95832.61;;;;
2019/06/09 03:53:56;;;;;;;4.650001;3.75;;;;;;;9.88;65.94141;95852.73;;;;
2019/06/09 03:54:57;;;;;;;4.650001;3.75;;;;;;;9.88;65.94141;95852.73;;;;
2019/06/09 03:55:58;;;;;;;4.650001;3.75;;;;;;;9.88;65.94141;95852.73;;;;
2019/06/09 03:56:59;;;;;;;4.650001;3.75;;;;;;;9.88;65.94141;95852.73;;;;
2019/06/09 03:58:01;;;;;;;4.650001;3.75;;;;;;;9.88;65.94141;95852.73;;;;
2019/06/09 03:59:02;;;;;;;4.650001;3.75;;;;;;;9.88;65.94141;95852.73;;;;
2019/06/09 04:00:03;;;;;;;4.650001;3.75;;;;;;;9.88;65.94141;95852.73;;;;
2019/06/09 04:01:04;;;;;;;4.650001;3.75;;;;;;;9.88;65.94141;95852.73;;;;
2019/06/09 04:02:05;;;;;;;4.650001;3.75;;;;;;;9.88;65.94141;95852.73;;;;
2019/06/09 04:03:06;;;;;;;4.650001;3.75;;;;;;;9.88;65.94141;95852.73;;;;
2019/06/09 04:04:07;;;;;;;4.650001;3.75;;;;;;;9.88;65.94141;95852.73;;;;
2019/06/09 04:05:08;;;;;;;4.650001;3.75;;;;;;;9.88;65.94141;95852.73;;;;
2019/06/09 04:06:09;;;;;;;4.650001;3.75;;;;;;;9.88;65.94141;95852.73;;;;
2019/06/09 04:07:10;;;;;;;4.650001;3.75;;;;;;;9.88;65.94141;95852.73;;;;
2019/06/09 04:08:12;;;;;;;4.650001;3.75;;;;;;;9.88;65.94141;95852.73;;;;
2019/06/09 04:09:13;;;;;;;4.650001;3.75;;;;;;;9.88;65.94141;95852.73;;;;
2019/06/09 04:10:14;;;;;;;4.650001;3.75;;;;;;;9.88;65.94141;95852.73;;;;
2019/06/09 04:11:15;;;;;;;4.650001;3.75;;;;;;;9.88;65.94141;95852.73;;;;
2019/06/09 04:12:16;;;;;;;4.650001;3.75;;;;;;;9.88;65.94141;95852.73;;;;
2019/06/09 04:13:17;;;;;;;4.650001;3.75;;;;;;;9.88;65.94141;95852.73;;;;
2019/06/09 04:14:18;;;;;;;4.650001;3.75;;;;;;;9.88;65.94141;95852.73;;;;
2019/06/09 04:15:20;;;;;;;5.85;4.3;;;;;;;10.18;66.31934;95865.12;;;;
2019/06/09 04:16:21;;;;;;;5.85;4.3;;;;;;;10.18;66.31934;95865.12;;;;
2019/06/09 04:17:22;;;;;;;5.85;4.3;;;;;;;10.18;66.31934;95865.12;;;;
2019/06/09 04:18:23;;;;;;;5.85;4.3;;;;;;;10.18;66.31934;95865.12;;;;
2019/06/09 04:19:24;;;;;;;5.85;4.3;;;;;;;10.18;66.31934;95865.12;;;;
2019/06/09 04:20:25;;;;;;;5.85;4.3;;;;;;;10.18;66.31934;95865.12;;;;
2019/06/09 04:21:26;;;;;;;5.85;4.3;;;;;;;10.18;66.31934;95865.12;;;;
2019/06/09 04:22:27;;;;;;;5.85;4.3;;;;;;;10.18;66.31934;95865.12;;;;
2019/06/09 04:23:28;;;;;;;5.85;4.3;;;;;;;10.18;66.31934;95865.12;;;;
2019/06/09 04:24:29;;;;;;;5.85;4.3;;;;;;;10.18;66.31934;95865.12;;;;
2019/06/09 04:25:30;;;;;;;5.85;4.3;;;;;;;10.18;66.31934;95865.12;;;;
2019/06/09 04:26:31;;;;;;;5.849999;3.95;;;;;;;10.3;66.44629;95862.84;;;;
2019/06/09 04:27:32;;;;;;;5.849999;3.95;;;;;;;10.3;66.44629;95862.84;;;;
2019/06/09 04:28:33;;;;;;;5.849999;3.95;;;;;;;10.3;66.44629;95862.84;;;;
2019/06/09 04:29:34;;;;;;;5.849999;3.95;;;;;;;10.3;66.44629;95862.84;;;;
2019/06/09 04:30:36;;;;;;;5.849999;3.95;;;;;;;10.3;66.44629;95862.84;;;;
2019/06/09 04:31:37;;;;;;;5.849999;3.95;;;;;;;10.3;66.44629;95862.84;;;;
2019/06/09 04:32:38;;;;;;;5.849999;3.95;;;;;;;10.3;66.44629;95862.84;;;;
2019/06/09 04:33:39;;;;;;;5.849999;3.95;;;;;;;10.3;66.44629;95862.84;;;;
2019/06/09 04:34:40;;;;;;;5.849999;3.95;;;;;;;10.3;66.44629;95862.84;;;;
2019/06/09 04:35:41;;;;;;;5.849999;3.95;;;;;;;10.3;66.44629;95862.84;;;;
2019/06/09 04:36:42;;;;;;;4.6;4;;;;;;;10.56;66.68945;95854.5;;;;
2019/06/09 04:37:43;;;;;;;4.6;4;;;;;;;10.56;66.68945;95854.5;;;;
2019/06/09 04:38:44;;;;;;;4.6;4;;;;;;;10.56;66.68945;95854.5;;;;
2019/06/09 04:39:45;;;;;;;4.6;4;;;;;;;10.56;66.68945;95854.5;;;;
2019/06/09 04:40:46;;;;;;;4.6;4;;;;;;;10.56;66.68945;95854.5;;;;
2019/06/09 04:41:47;;;;;;;4.6;4;;;;;;;10.56;66.68945;95854.5;;;;
2019/06/09 04:42:48;;;;;;;4.6;4;;;;;;;10.56;66.68945;95854.5;;;;
2019/06/09 04:43:49;;;;;;;4.6;4;;;;;;;10.56;66.68945;95854.5;;;;
2019/06/09 04:44:50;;;;;;;4.6;4;;;;;;;10.56;66.68945;95854.5;;;;
2019/06/09 04:45:51;;;;;;;4.6;4;;;;;;;10.56;66.68945;95854.5;;;;
2019/06/09 04:46:52;;;;;;;4.6;4;;;;;;;10.56;66.68945;95854.5;;;;
2019/06/09 04:47:54;;;;;;;4.6;4;;;;;;;10.56;66.68945;95854.5;;;;
2019/06/09 04:48:55;;;;;;;4.6;4;;;;;;;10.56;66.68945;95854.5;;;;
2019/06/09 04:49:56;;;;;;;4.6;4;;;;;;;10.56;66.68945;95854.5;;;;
2019/06/09 04:50:57;;;;;;;4.6;4;;;;;;;10.56;66.68945;95854.5;;;;
2019/06/09 04:51:58;;;;;;;4.6;4;;;;;;;10.56;66.68945;95854.5;;;;
2019/06/09 04:52:59;;;;;;;4.6;4;;;;;;;10.56;66.68945;95854.5;;;;
2019/06/09 04:54:00;;;;;;;4.6;4;;;;;;;10.56;66.68945;95854.5;;;;
2019/06/09 04:55:01;;;;;;;4.6;4;;;;;;;10.56;66.68945;95854.5;;;;
2019/06/09 04:56:02;;;;;;;4.6;4;;;;;;;10.56;66.68945;95854.5;;;;
2019/06/09 04:57:03;;;;;;;4.6;4;;;;;;;10.56;66.68945;95854.5;;;;
2019/06/09 04:58:04;;;;;;;5.5;4.15;;;;;;;11.42;66.68066;95829.57;;;;
2019/06/09 04:59:05;;;;;;;5.5;4.15;;;;;;;11.42;66.68066;95829.57;;;;
2019/06/09 05:00:06;;;;;;;5.5;4.15;;;;;;;11.42;66.68066;95829.57;;;;
2019/06/09 05:01:08;;;;;;;5.5;4.15;;;;;;;11.42;66.68066;95829.57;;;;
2019/06/09 05:02:09;;;;;;;5.5;4.15;;;;;;;11.42;66.68066;95829.57;;;;
2019/06/09 05:03:10;;;;;;;5.5;4.15;;;;;;;11.42;66.68066;95829.57;;;;
2019/06/09 05:04:11;;;;;;;5.5;4.15;;;;;;;11.42;66.68066;95829.57;;;;
2019/06/09 05:05:12;;;;;;;5.5;4.15;;;;;;;11.42;66.68066;95829.57;;;;
2019/06/09 05:06:13;;;;;;;5.5;4.15;;;;;;;11.42;66.68066;95829.57;;;;
2019/06/09 05:07:14;;;;;;;5.5;4.15;;;;;;;11.42;66.68066;95829.57;;;;
2019/06/09 05:08:15;;;;;;;4.85;3.7;;;;;;;11.96;66.21387;95828.63;;;;
2019/06/09 05:09:16;;;;;;;4.85;3.7;;;;;;;11.96;66.21387;95828.63;;;;
2019/06/09 05:10:17;;;;;;;4.85;3.7;;;;;;;11.96;66.21387;95828.63;;;;
2019/06/09 05:11:18;;;;;;;4.85;3.7;;;;;;;11.96;66.21387;95828.63;;;;
2019/06/09 05:12:19;;;;;;;4.85;3.7;;;;;;;11.96;66.21387;95828.63;;;;
2019/06/09 05:13:20;;;;;;;4.85;3.7;;;;;;;11.96;66.21387;95828.63;;;;
2019/06/09 05:14:21;;;;;;;4.85;3.7;;;;;;;11.96;66.21387;95828.63;;;;
2019/06/09 05:15:22;;;;;;;4.85;3.7;;;;;;;11.96;66.21387;95828.63;;;;
2019/06/09 05:16:23;;;;;;;4.85;3.7;;;;;;;11.96;66.21387;95828.63;;;;
2019/06/09 05:17:24;;;;;;;4.85;3.7;;;;;;;11.96;66.21387;95828.63;;;;
2019/06/09 05:18:26;;;;;;;4.85;3.7;;;;;;;11.96;66.21387;95828.63;;;;
2019/06/09 05:19:27;;;;;;;4.85;3.65;;;;;;;12.6;65.71777;95822.25;;;;
2019/06/09 05:20:28;;;;;;;4.85;3.65;;;;;;;12.6;65.71777;95822.25;;;;
2019/06/09 05:21:29;;;;;;;4.85;3.65;;;;;;;12.6;65.71777;95822.25;;;;
2019/06/09 05:22:30;;;;;;;4.85;3.65;;;;;;;12.6;65.71777;95822.25;;;;
2019/06/09 05:23:31;;;;;;;4.85;3.65;;;;;;;12.6;65.71777;95822.25;;;;
2019/06/09 05:24:32;;;;;;;4.85;3.65;;;;;;;12.6;65.71777;95822.25;;;;
2019/06/09 05:25:33;;;;;;;4.85;3.65;;;;;;;12.6;65.71777;95822.25;;;;
2019/06/09 05:26:34;;;;;;;4.85;3.65;;;;;;;12.6;65.71777;95822.25;;;;
2019/06/09 05:27:35;;;;;;;4.85;3.65;;;;;;;12.6;65.71777;95822.25;;;;
2019/06/09 05:28:36;;;;;;;4.85;3.65;;;;;;;12.6;65.71777;95822.25;;;;
2019/06/09 05:29:37;;;;;;;5.05;3.55;;;;;;;13.2;64.98633;95816.16;;;;
2019/06/09 05:30:38;;;;;;;5.05;3.55;;;;;;;13.2;64.98633;95816.16;;;;
2019/06/09 05:31:40;;;;;;;5.05;3.55;;;;;;;13.2;64.98633;95816.16;;;;
2019/06/09 05:32:41;;;;;;;5.05;3.55;;;;;;;13.2;64.98633;95816.16;;;;
2019/06/09 05:33:42;;;;;;;5.05;3.55;;;;;;;13.2;64.98633;95816.16;;;;
2019/06/09 05:34:43;;;;;;;5.05;3.55;;;;;;;13.2;64.98633;95816.16;;;;
2019/06/09 05:35:44;;;;;;;5.05;3.55;;;;;;;13.2;64.98633;95816.16;;;;
2019/06/09 05:36:45;;;;;;;5.05;3.55;;;;;;;13.2;64.98633;95816.16;;;;
2019/06/09 05:37:46;;;;;;;5.05;3.55;;;;;;;13.2;64.98633;95816.16;;;;
2019/06/09 05:38:47;;;;;;;5.05;3.55;;;;;;;13.2;64.98633;95816.16;;;;
2019/06/09 05:39:48;;;;;;;4.8;3.35;;;;;;;13.82;64.44043;95813.87;;;;
2019/06/09 05:40:49;;;;;;;4.8;3.35;;;;;;;13.82;64.44043;95813.87;;;;
2019/06/09 05:41:50;;;;;;;4.8;3.35;;;;;;;13.82;64.44043;95813.87;;;;
2019/06/09 05:42:51;;;;;;;4.8;3.35;;;;;;;13.82;64.44043;95813.87;;;;
2019/06/09 05:43:52;;;;;;;4.8;3.35;;;;;;;13.82;64.44043;95813.87;;;;
2019/06/09 05:44:53;;;;;;;4.8;3.35;;;;;;;13.82;64.44043;95813.87;;;;
2019/06/09 05:45:54;;;;;;;4.8;3.35;;;;;;;13.82;64.44043;95813.87;;;;
2019/06/09 05:46:55;;;;;;;4.8;3.35;;;;;;;13.82;64.44043;95813.87;;;;